Time;durP1;ratioP1;P1;durP2;ratioP2;P2;SDS_P1;SDS_P2;PMS_P1;PMS_P2;Temp;Humidity;BMP_temperature;BMP_pressure;BME280_temperature;BME280_humidity;BME280_pressure;Samples;Min_cycle;Max_cycle;Signal;HPM_P1;HPM_P2
2021/01/11 00:04:19;;;;;;;10.37;7.00;;;;;;;-0.79;81.10;101309.14;4822308;59;1138630;-86
2021/01/11 00:09:25;;;;;;;13.67;8.47;;;;;;;-0.80;81.07;101303.53;4872415;59;1138330;-86
2021/01/11 00:14:32;;;;;;;17.50;9.58;;;;;;;-0.80;81.19;101299.64;4840729;59;1138459;-86
2021/01/11 00:19:38;;;;;;;17.30;9.63;;;;;;;-0.85;81.16;101289.77;4819575;59;1138254;-87
2021/01/11 00:24:43;;;;;;;14.03;7.58;;;;;;;-0.81;81.22;101285.80;4907023;59;1138388;-87
2021/01/11 00:29:49;;;;;;;19.17;12.20;;;;;;;-0.79;81.33;101287.06;4831052;59;1138599;-87
2021/01/11 00:34:55;;;;;;;21.00;10.30;;;;;;;-0.74;81.51;101283.92;4845633;59;1141015;-86
2021/01/11 00:40:00;;;;;;;21.93;12.63;;;;;;;-0.77;81.28;101277.07;4770249;60;1140672;-87
2021/01/11 00:45:08;;;;;;;20.80;9.77;;;;;;;-0.81;81.26;101271.95;4735008;60;1140864;-86
2021/01/11 00:50:15;;;;;;;23.33;12.23;;;;;;;-0.84;81.35;101274.60;4731428;62;21172;-86
2021/01/11 00:55:22;;;;;;;23.97;11.20;;;;;;;-0.92;81.40;101278.66;4677760;63;21198;-86
2021/01/11 01:00:32;;;;;;;22.37;11.27;;;;;;;-0.94;81.58;101280.86;4636384;60;1136519;-86
2021/01/11 01:05:39;;;;;;;11.73;6.40;;;;;;;-0.93;81.75;101281.28;4798824;58;1140597;-87
2021/01/11 01:10:45;;;;;;;17.83;8.93;;;;;;;-0.98;81.71;101280.49;4812534;58;1138665;-86
2021/01/11 01:15:50;;;;;;;23.70;12.57;;;;;;;-1.02;81.85;101274.49;4773947;58;1138438;-85
2021/01/11 01:20:56;;;;;;;24.00;11.57;;;;;;;-1.03;81.99;101271.48;4835959;59;1138404;-86
2021/01/11 01:26:01;;;;;;;24.83;12.53;;;;;;;-1.09;82.04;101267.27;4762686;58;1140357;-86
2021/01/11 01:31:07;;;;;;;32.50;14.80;;;;;;;-1.12;82.20;101260.83;4774754;58;1140395;-86
2021/01/11 01:36:13;;;;;;;25.60;13.33;;;;;;;-1.13;82.25;101259.56;4823224;59;1140372;-86
2021/01/11 01:41:18;;;;;;;29.03;14.80;;;;;;;-1.18;82.39;101257.03;4797171;59;1140505;-86
2021/01/11 01:46:24;;;;;;;22.87;11.47;;;;;;;-1.19;82.47;101254.47;4810174;59;1140385;-86
2021/01/11 01:51:30;;;;;;;24.67;13.03;;;;;;;-1.21;82.54;101257.08;4787578;59;1140775;-85
2021/01/11 01:56:36;;;;;;;32.53;15.13;;;;;;;-1.24;82.69;101249.81;4839365;59;1140300;-86
2021/01/11 02:01:42;;;;;;;28.20;14.80;;;;;;;-1.26;82.78;101256.77;4887643;60;21535;-85
2021/01/11 02:06:51;;;;;;;24.00;10.83;;;;;;;-1.28;82.79;101249.45;4881446;60;21428;-86
2021/01/11 02:12:02;;;;;;;27.37;12.97;;;;;;;-1.27;82.86;101259.80;4824938;59;1136353;-86
2021/01/11 02:17:25;;;;;;;28.70;13.17;;;;;;;-1.27;82.90;101260.25;4799747;59;1140826;-85
2021/01/11 02:22:33;;;;;;;;;;;;;;;-1.27;82.92;101260.25;4871455;59;1138528;-86
2021/01/11 02:27:54;;;;;;;22.50;9.97;;;;;;;-1.27;82.89;101245.53;4884066;60;20426;-85
2021/01/11 02:33:13;;;;;;;31.00;14.30;;;;;;;-1.28;82.94;101243.81;4827665;59;1134410;-86
2021/01/11 02:38:22;;;;;;;33.70;16.27;;;;;;;-1.28;83.01;101245.11;4797634;59;1140592;-85
2021/01/11 02:43:28;;;;;;;33.43;14.60;;;;;;;-1.29;83.03;101238.66;4888970;60;21472;-85
2021/01/11 02:48:41;;;;;;;37.03;16.67;;;;;;;-1.30;83.03;101243.42;4698326;60;1136521;-86
2021/01/11 02:54:12;;;;;;;36.60;16.10;;;;;;;-1.31;82.95;101233.92;4687541;61;1140404;-85
2021/01/11 02:59:32;;;;;;;42.77;16.37;;;;;;;-1.30;82.91;101228.71;4889368;60;21538;-86
2021/01/11 03:04:39;;;;;;;37.38;17.35;;;;;;;-1.31;82.90;101215.32;4794837;59;1136946;-86
2021/01/11 03:09:47;;;;;;;35.63;14.63;;;;;;;-1.33;82.90;101210.59;4794821;59;1140700;-86
2021/01/11 03:14:53;;;;;;;37.10;16.07;;;;;;;-1.36;82.84;101206.75;4715073;60;1140394;-86
2021/01/11 03:19:58;;;;;;;33.20;14.53;;;;;;;-1.37;82.79;101203.73;4891544;60;21182;-86
2021/01/11 03:25:05;;;;;;;35.87;17.30;;;;;;;-1.39;82.75;101199.05;4888305;60;21173;-86
2021/01/11 03:30:11;;;;;;;39.87;17.60;;;;;;;-1.38;82.81;101192.13;4714842;60;1136360;-86
2021/01/11 03:35:18;;;;;;;40.47;18.67;;;;;;;-1.36;82.75;101189.03;4790343;59;1140414;-86
2021/01/11 03:40:23;;;;;;;41.23;19.17;;;;;;;-1.37;82.63;101184.28;4727299;60;1140354;-86
2021/01/11 03:45:29;;;;;;;37.70;17.23;;;;;;;-1.35;82.74;101163.50;4778413;59;1140833;-87
2021/01/11 03:50:35;;;;;;;38.57;18.60;;;;;;;-1.34;82.65;101165.22;4954301;59;21226;-86
2021/01/11 03:55:42;;;;;;;40.40;19.02;;;;;;;-1.32;82.60;101162.16;4735441;60;1136447;-86
2021/01/11 04:00:52;;;;;;;44.00;17.13;;;;;;;-1.29;82.64;101155.61;4797319;59;1140554;-86
2021/01/11 04:05:59;;;;;;;42.13;19.87;;;;;;;-1.27;82.41;101160.34;4819473;59;1140360;-87
2021/01/11 04:11:07;;;;;;;57.87;26.60;;;;;;;-1.30;82.34;101156.06;4889625;60;21185;-87
2021/01/11 04:16:12;;;;;;;29.17;13.07;;;;;;;-1.29;82.25;101154.32;4820302;60;21260;-86
2021/01/11 04:21:18;;;;;;;31.00;15.50;;;;;;;-1.34;82.07;101152.23;4881043;60;21177;-87
2021/01/11 04:26:23;;;;;;;36.67;16.47;;;;;;;-1.35;82.07;101148.79;4897844;60;21083;-87
2021/01/11 04:31:30;;;;;;;46.08;17.92;;;;;;;-1.37;81.99;101151.00;4809102;59;1144392;-87
2021/01/11 04:36:36;;;;;;;33.30;15.40;;;;;;;-1.39;82.08;101143.27;4798563;59;1140498;-86
2021/01/11 04:41:44;;;;;;;40.45;13.08;;;;;;;-1.38;81.89;101140.23;4798300;59;1140509;-86
2021/01/11 04:46:51;;;;;;;27.57;11.47;;;;;;;-1.36;81.56;101139.30;4833092;59;1140549;-86
2021/01/11 04:51:57;;;;;;;24.70;10.07;;;;;;;-1.38;81.58;101130.71;4895600;60;21161;-86
2021/01/11 04:57:04;;;;;;;20.40;8.93;;;;;;;-1.40;81.36;101123.84;4695855;60;1136286;-86
2021/01/11 05:02:11;;;;;;;21.97;9.00;;;;;;;-1.42;81.29;101127.31;4859950;59;1136269;-86
2021/01/11 05:07:22;;;;;;;30.30;15.00;;;;;;;-1.42;81.56;101123.42;4844505;59;1138634;-86
2021/01/11 05:12:29;;;;;;;31.83;14.63;;;;;;;-1.44;81.48;101115.25;4784282;59;1140686;-87
2021/01/11 05:17:44;;;;;;;26.63;12.23;;;;;;;-1.46;81.56;101115.27;4849913;59;1140417;-87
2021/01/11 05:22:50;;;;;;;30.33;14.07;;;;;;;-1.46;81.59;101111.83;4797624;59;1140632;-87
2021/01/11 05:28:11;;;;;;;28.27;12.53;;;;;;;-1.46;81.49;101100.16;4813283;59;1140334;-87
2021/01/11 05:33:25;;;;;;;30.00;13.40;;;;;;;-1.50;81.28;101098.05;4835614;59;1140621;-87
2021/01/11 05:38:38;;;;;;;25.43;11.45;;;;;;;-1.51;81.51;101098.93;4807915;59;1140735;-88
2021/01/11 05:43:48;;;;;;;17.95;7.97;;;;;;;-1.54;81.32;101099.02;4812587;59;1140406;-87
2021/01/11 05:49:11;;;;;;;26.23;12.43;;;;;;;-1.53;81.43;101098.58;4842096;59;1138285;-88
2021/01/11 05:54:28;;;;;;;11.48;4.72;;;;;;;-1.55;81.37;101097.75;4831066;59;1140603;-88
2021/01/11 05:59:33;;;;;;;17.83;9.03;;;;;;;-1.58;81.14;101086.12;4796414;59;1138548;-88
2021/01/11 06:04:39;;;;;;;26.40;10.70;;;;;;;-1.59;81.26;101089.16;4833856;59;1138730;-87
2021/01/11 06:09:45;;;;;;;26.77;13.33;;;;;;;-1.60;81.35;101086.59;4797205;59;1140888;-87
2021/01/11 06:14:51;;;;;;;23.00;10.97;;;;;;;-1.60;81.32;101090.48;4811549;59;1140410;-87
2021/01/11 06:19:57;;;;;;;26.20;11.97;;;;;;;-1.62;81.30;101089.66;4795579;59;1140558;-88
2021/01/11 06:25:07;;;;;;;26.60;13.07;;;;;;;-1.65;81.19;101080.19;4812137;59;1140391;-87
2021/01/11 06:30:17;;;;;;;18.73;7.97;;;;;;;-1.66;81.17;101085.39;4787197;59;1140476;-87
2021/01/11 06:35:30;;;;;;;24.83;10.40;;;;;;;-1.69;81.10;101088.07;4773444;59;1139296;-88
2021/01/11 06:40:36;;;;;;;16.97;6.62;;;;;;;-1.73;81.24;101092.89;4705768;60;1140441;-87
2021/01/11 06:45:43;;;;;;;29.70;14.40;;;;;;;-1.73;81.26;101095.48;4605214;60;1138813;-87
2021/01/11 06:50:51;;;;;;;14.47;5.93;;;;;;;-1.71;81.54;101088.09;4550436;63;1140773;-88
2021/01/11 06:56:09;;;;;;;23.03;8.07;;;;;;;-1.66;81.21;101085.39;4569572;63;1139032;-87
2021/01/11 07:01:14;;;;;;;10.70;5.80;;;;;;;-1.64;80.96;101081.89;4585891;62;1138324;-88
2021/01/11 07:06:46;;;;;;;32.07;14.03;;;;;;;-1.62;80.94;101077.98;4667540;62;1138333;-87
2021/01/11 07:11:53;;;;;;;26.25;13.03;;;;;;;-1.56;81.36;101081.77;4644325;62;1140586;-87
2021/01/11 07:16:58;;;;;;;21.00;7.47;;;;;;;-1.55;81.15;101084.34;4709890;60;1140577;-87
2021/01/11 07:22:12;;;;;;;26.80;12.37;;;;;;;-1.53;80.82;101083.02;4632231;62;1139191;-87
2021/01/11 07:27:14;;;;;;;23.40;8.97;;;;;;;-1.49;81.21;101078.16;4643164;62;1140483;-88
2021/01/11 07:32:20;;;;;;;21.97;10.37;;;;;;;-1.46;80.70;101075.06;4589720;63;1138479;-89
2021/01/11 07:37:25;;;;;;;24.37;11.10;;;;;;;-1.49;80.40;101066.48;4641612;60;1140653;-87
2021/01/11 07:42:31;;;;;;;18.23;8.67;;;;;;;-1.45;80.25;101063.81;4692289;60;1140388;-88
2021/01/11 07:47:41;;;;;;;21.83;10.00;;;;;;;-1.43;80.32;101076.31;4857464;59;1138685;-89
2021/01/11 07:52:48;;;;;;;24.80;12.18;;;;;;;-1.35;80.44;101066.20;4690294;60;1140860;-89
2021/01/11 07:57:54;;;;;;;24.50;11.13;;;;;;;-1.33;80.24;101061.41;4862092;59;1140505;-90
2021/01/11 08:03:00;;;;;;;31.53;12.50;;;;;;;-1.24;80.37;101062.53;4866087;59;1140519;-88
2021/01/11 08:08:07;;;;;;;15.43;6.75;;;;;;;-1.18;80.55;101058.50;4846084;59;1140853;-93
2021/01/11 08:13:13;;;;;;;51.85;17.95;;;;;;;-1.12;79.64;101064.87;4888786;59;1138245;-94
2021/01/11 08:18:22;;;;;;;19.30;7.87;;;;;;;-1.06;80.54;101052.19;4883293;59;1140678;-90
2021/01/11 08:23:27;;;;;;;26.70;11.90;;;;;;;-0.94;79.84;101055.84;4836248;59;1138504;-89
2021/01/11 08:28:34;;;;;;;32.87;13.47;;;;;;;-0.87;79.86;101062.59;4834244;59;1234188;-89
2021/01/11 08:33:40;;;;;;;22.55;8.05;;;;;;;-0.81;79.24;101062.91;4837873;59;1140581;-89
2021/01/11 08:39:15;;;;;;;18.87;9.48;;;;;;;-0.78;79.02;101067.59;4867936;59;1138330;-89
2021/01/11 08:44:33;;;;;;;42.67;16.30;;;;;;;-0.72;79.20;101068.73;4689684;60;1138389;-88
2021/01/11 08:49:59;;;;;;;21.10;9.53;;;;;;;-0.68;79.81;101072.13;4805502;59;1140834;-87
2021/01/11 08:55:14;;;;;;;23.43;8.63;;;;;;;-0.64;79.26;101075.08;4806319;59;1138365;-88
2021/01/11 09:00:20;;;;;;;26.37;12.67;;;;;;;-0.59;78.68;101071.05;4822856;59;1138372;-88
2021/01/11 09:05:26;;;;;;;21.17;8.53;;;;;;;-0.56;78.43;101074.44;4806628;59;1140589;-87
2021/01/11 09:10:32;;;;;;;21.13;10.63;;;;;;;-0.53;78.41;101065.28;4809144;59;1138461;-87
2021/01/11 09:15:37;;;;;;;22.37;10.77;;;;;;;-0.52;78.33;101068.73;4828702;59;1140944;-88
2021/01/11 09:20:46;;;;;;;17.32;7.95;;;;;;;-0.50;77.97;101067.81;4808591;59;1140912;-88
2021/01/11 09:25:52;;;;;;;23.38;9.33;;;;;;;-0.46;77.94;101074.63;4863207;59;1138468;-88
2021/01/11 09:30:57;;;;;;;35.97;10.93;;;;;;;-0.41;78.27;101078.42;4805852;59;1138479;-88
2021/01/11 09:36:03;;;;;;;20.67;8.50;;;;;;;-0.34;78.07;101073.95;4862624;59;1138486;-88
2021/01/11 09:41:09;;;;;;;27.30;10.53;;;;;;;-0.36;77.03;101071.38;4861872;59;1138565;-88
2021/01/11 09:46:14;;;;;;;25.17;11.33;;;;;;;-0.32;77.58;101074.77;4837449;59;1140649;-88
2021/01/11 09:51:20;;;;;;;17.97;8.73;;;;;;;-0.30;77.91;101067.76;4861639;59;1140511;-89
2021/01/11 09:56:25;;;;;;;22.53;10.00;;;;;;;-0.26;77.89;101070.70;4837610;59;1138391;-88
2021/01/11 10:01:49;;;;;;;24.63;11.53;;;;;;;-0.27;77.09;101078.94;4845610;58;1140898;-89
2021/01/11 10:06:57;;;;;;;25.63;11.47;;;;;;;-0.25;77.67;101073.27;4685909;60;1140850;-89
2021/01/11 10:12:09;;;;;;;43.77;16.00;;;;;;;-0.24;77.37;101076.28;4856998;59;1140832;-88
2021/01/11 10:17:15;;;;;;;58.90;18.37;;;;;;;-0.23;77.55;101071.94;4836264;59;1140490;-88
2021/01/11 10:22:20;;;;;;;444.37;122.87;;;;;;;-0.21;77.69;101071.01;4834319;59;1140584;-89
2021/01/11 10:27:27;;;;;;;149.73;35.07;;;;;;;-0.20;77.85;101068.82;4692873;59;1145020;-89
2021/01/11 10:32:33;;;;;;;180.40;42.60;;;;;;;-0.22;77.49;101069.30;4917064;59;1138383;-89
2021/01/11 10:38:23;;;;;;;;;;;;;;;;;;;;;
2021/01/11 10:44:03;;;;;;;255.07;68.90;;;;;;;-0.22;77.14;101055.45;4878748;59;1140810;-89
2021/01/11 10:49:37;;;;;;;;;;;;;;;;;;;;;
2021/01/11 10:54:51;;;;;;;62.50;23.07;;;;;;;-0.22;76.63;101046.35;4876827;59;1142650;-89
2021/01/11 10:59:58;;;;;;;167.53;66.30;;;;;;;-0.20;77.40;101042.83;4874420;59;1140425;-89
2021/01/11 11:05:06;;;;;;;66.80;25.47;;;;;;;-0.20;77.31;101035.48;4862065;59;1142888;-89
2021/01/11 11:10:13;;;;;;;66.23;31.30;;;;;;;-0.16;77.78;101032.77;4900182;59;1140420;-89
2021/01/11 11:15:19;;;;;;;28.87;15.13;;;;;;;-0.14;77.47;101023.60;4850972;58;1140449;-88
2021/01/11 11:20:42;;;;;;;35.13;15.23;;;;;;;-0.12;77.73;101010.13;4749968;60;1140663;-88
2021/01/11 11:25:53;;;;;;;115.22;46.25;;;;;;;-0.06;77.71;101010.83;4775315;60;1140877;-89
2021/01/11 11:30:59;;;;;;;43.13;17.25;;;;;;;-0.02;77.63;101005.11;4769386;60;1142582;-89
2021/01/11 11:36:05;;;;;;;48.60;20.47;;;;;;;-0.02;77.66;101002.06;4769330;60;1140792;-89
2021/01/11 11:41:10;;;;;;;61.53;19.33;;;;;;;-0.01;77.67;101000.32;4790160;60;1140870;-89
2021/01/11 11:46:16;;;;;;;19.70;8.90;;;;;;;-0.01;77.57;100997.72;4704719;62;1140580;-89
2021/01/11 11:51:21;;;;;;;34.10;11.70;;;;;;;-0.01;77.60;100992.52;4787699;59;1138258;-89
2021/01/11 11:56:27;;;;;;;22.13;8.57;;;;;;;0.00;77.89;100970.83;4838732;59;1140328;-89
2021/01/11 12:01:41;;;;;;;21.67;10.60;;;;;;;0.05;77.93;100975.44;4845454;59;1136692;-88
2021/01/11 12:06:47;;;;;;;40.40;16.05;;;;;;;0.06;78.22;100957.64;4843640;57;1138752;-89
2021/01/11 12:11:53;;;;;;;92.17;30.07;;;;;;;0.10;78.21;100957.11;4844297;58;1138568;-87
2021/01/11 12:16:59;;;;;;;74.87;24.67;;;;;;;0.11;78.35;100945.81;4718517;60;1138747;-88
2021/01/11 12:22:10;;;;;;;43.97;16.13;;;;;;;0.15;78.35;100934.45;4839265;59;1138296;-88
2021/01/11 12:27:17;;;;;;;114.37;28.15;;;;;;;0.15;78.35;100934.45;4841326;59;1138399;-88
2021/01/11 12:32:24;;;;;;;22.03;9.70;;;;;;;0.18;78.45;100932.58;4836156;59;1140507;-88
2021/01/11 12:38:17;;;;;;;25.70;10.70;;;;;;;0.21;78.37;100931.20;4852728;58;1136182;-89
2021/01/11 12:43:23;;;;;;;49.20;15.60;;;;;;;0.19;78.27;100913.94;4839255;58;1138329;-90
2021/01/11 12:48:32;;;;;;;20.87;9.90;;;;;;;0.18;78.24;100914.38;4841298;59;1138284;-91
2021/01/11 12:53:51;;;;;;;48.23;16.23;;;;;;;0.20;78.40;100903.94;4846118;59;1136365;-93
2021/01/11 12:59:05;;;;;;;20.73;8.93;;;;;;;0.21;78.35;100909.09;4836791;59;1138396;-88
2021/01/11 13:04:06;;;;;;;147.00;43.23;;;;;;;0.17;78.29;100897.06;4836030;59;1136280;-89
2021/01/11 13:09:15;;;;;;;39.47;15.03;;;;;;;0.14;78.37;100895.88;4710989;59;1140776;-89
2021/01/11 13:14:54;;;;;;;41.23;15.23;;;;;;;0.10;78.38;100899.91;4833949;59;1138397;-89
2021/01/11 13:19:59;;;;;;;39.83;15.57;;;;;;;0.11;78.61;100889.91;4827454;58;1138613;-88
2021/01/11 13:25:05;;;;;;;21.37;8.87;;;;;;;0.12;78.65;100887.27;4882408;59;1138902;-88
2021/01/11 13:30:12;;;;;;;27.10;11.00;;;;;;;0.13;78.57;100883.77;4846690;58;1136569;-88
2021/01/11 13:35:17;;;;;;;38.70;14.67;;;;;;;0.16;78.56;100893.20;4865639;58;1138592;-88
2021/01/11 13:40:23;;;;;;;71.40;28.03;;;;;;;0.16;78.59;100888.86;4836483;59;1138569;-88
2021/01/11 13:45:32;;;;;;;30.77;13.60;;;;;;;0.18;78.48;100887.52;4834569;59;1138783;-88
2021/01/11 13:50:43;;;;;;;22.60;10.87;;;;;;;0.17;78.75;100884.06;4822632;59;1138521;-88
2021/01/11 13:55:49;;;;;;;17.90;7.78;;;;;;;0.17;78.40;100881.91;4835387;59;1138682;-89
2021/01/11 14:00:59;;;;;;;10.23;6.03;;;;;;;0.17;78.42;100880.16;4816447;59;1136533;-88
2021/01/11 14:06:05;;;;;;;21.77;10.03;;;;;;;0.19;78.59;100880.13;4724299;60;1136274;-88
2021/01/11 14:11:11;;;;;;;17.17;7.30;;;;;;;0.15;78.55;100860.33;4838597;59;1138657;-88
2021/01/11 14:16:26;;;;;;;16.03;7.73;;;;;;;0.22;78.59;100862.69;4839002;59;1136366;-89
2021/01/11 14:21:27;;;;;;;18.63;7.30;;;;;;;0.21;78.35;100853.17;4859740;59;1136397;-89
2021/01/11 14:26:37;;;;;;;19.82;8.60;;;;;;;0.22;78.35;100858.78;4806048;59;1136524;-89
2021/01/11 14:31:51;;;;;;;21.33;10.77;;;;;;;0.25;78.63;100856.55;4799061;59;1136681;-90
2021/01/11 14:37:01;;;;;;;30.57;13.65;;;;;;;0.28;78.57;100857.31;4698683;60;1138619;-88
2021/01/11 14:42:15;;;;;;;22.67;10.63;;;;;;;0.32;78.70;100849.80;4800547;59;1138356;-87
2021/01/11 14:47:20;;;;;;;38.57;11.70;;;;;;;0.34;78.43;100859.70;4811837;59;1138666;-87
2021/01/11 14:52:26;;;;;;;33.73;13.23;;;;;;;0.36;78.22;100862.27;4799070;59;1138792;-87
2021/01/11 14:57:31;;;;;;;39.57;12.03;;;;;;;0.40;78.44;100855.23;4798599;59;1138359;-88
2021/01/11 15:02:37;;;;;;;51.20;14.47;;;;;;;0.40;78.09;100847.42;4799693;59;1138600;-87
2021/01/11 15:07:43;;;;;;;35.60;8.95;;;;;;;0.42;77.89;100846.94;4802057;58;1138631;-89
2021/01/11 15:12:49;;;;;;;46.63;16.00;;;;;;;0.41;77.72;100836.13;4787019;59;1136726;-87
2021/01/11 15:17:55;;;;;;;41.58;11.53;;;;;;;0.42;77.94;100836.08;4797027;58;1138853;-87
2021/01/11 15:23:00;;;;;;;16.80;8.10;;;;;;;0.41;77.66;100839.58;4792775;59;1138944;-87
2021/01/11 15:28:06;;;;;;;76.10;30.77;;;;;;;0.40;77.08;100836.56;4831445;58;1136486;-86
2021/01/11 15:33:13;;;;;;;71.13;28.53;;;;;;;0.42;77.71;100830.02;4807450;59;1138614;-86
2021/01/11 15:38:22;;;;;;;16.00;8.53;;;;;;;0.41;77.17;100820.06;4851011;59;1138302;-88
2021/01/11 15:43:43;;;;;;;26.07;7.93;;;;;;;0.41;76.72;100820.52;4678577;60;1137434;-88
2021/01/11 15:48:49;;;;;;;18.82;9.83;;;;;;;0.42;76.53;100807.45;4633589;60;1136355;-87
2021/01/11 15:54:08;;;;;;;33.60;12.20;;;;;;;0.42;76.90;100817.02;4631534;62;1138695;-87
2021/01/11 15:59:17;;;;;;;184.93;52.90;;;;;;;0.41;76.76;100820.06;4606141;62;1138859;-88
2021/01/11 16:04:22;;;;;;;44.80;16.43;;;;;;;0.41;77.18;100808.80;4635411;61;1140506;-87
2021/01/11 16:09:29;;;;;;;52.23;18.37;;;;;;;0.43;76.66;100803.95;4608414;62;1138509;-88
2021/01/11 16:14:36;;;;;;;70.73;26.27;;;;;;;0.43;76.56;100785.74;4610344;62;1138884;-89
2021/01/11 16:19:45;;;;;;;30.27;11.43;;;;;;;0.47;76.80;100779.52;4593219;62;1138928;-88
2021/01/11 16:24:54;;;;;;;45.40;14.63;;;;;;;0.49;75.78;100769.06;4632724;62;1139111;-84
2021/01/11 16:30:00;;;;;;;50.15;21.77;;;;;;;0.48;75.95;100760.86;4612039;62;1138534;-85
2021/01/11 16:35:07;;;;;;;41.80;18.63;;;;;;;0.47;75.80;100757.85;4612982;62;1138375;-84
2021/01/11 16:40:14;;;;;;;42.87;14.33;;;;;;;0.46;76.03;100768.70;4612833;61;1138531;-85
2021/01/11 16:45:20;;;;;;;58.83;19.60;;;;;;;0.45;75.99;100756.63;4614733;61;1138475;-84
2021/01/11 16:50:25;;;;;;;29.27;10.23;;;;;;;0.45;76.09;100754.03;4677543;60;1138497;-83
2021/01/11 16:55:31;;;;;;;49.43;17.67;;;;;;;0.42;75.42;100750.22;4877220;59;1138234;-83
2021/01/11 17:00:39;;;;;;;33.40;14.37;;;;;;;0.39;75.63;100742.95;4873736;58;1138278;-87
2021/01/11 17:05:45;;;;;;;47.57;14.23;;;;;;;0.31;75.73;100736.68;4918976;58;1138616;-88
2021/01/11 17:16:36;;;;;;;41.80;14.18;;;;;;;0.26;75.93;100734.70;4599036;62;1139202;-90
2021/01/11 17:21:41;;;;;;;28.37;9.27;;;;;;;0.20;75.89;100722.73;4509193;64;1138388;-91
2021/01/11 17:26:47;;;;;;;34.23;13.43;;;;;;;0.15;76.01;100718.14;4559013;62;1136293;-91
2021/01/11 17:32:06;;;;;;;57.27;19.83;;;;;;;0.14;76.09;100715.14;4473362;63;1138788;-92
2021/01/11 17:37:11;;;;;;;40.17;14.77;;;;;;;0.11;76.00;100710.03;4545572;63;1138495;-90
2021/01/11 17:42:16;;;;;;;37.10;12.40;;;;;;;0.09;76.27;100697.52;4533233;64;1138686;-92
2021/01/11 17:47:22;;;;;;;42.17;15.67;;;;;;;0.09;76.24;100699.27;4563753;63;1138582;-91
2021/01/11 17:52:28;;;;;;;50.37;19.33;;;;;;;0.08;76.14;100688.46;4564690;61;1138489;-91
2021/01/11 17:57:33;;;;;;;44.67;16.50;;;;;;;0.04;76.50;100674.70;4845774;59;1138531;-91
2021/01/11 18:02:43;;;;;;;65.67;22.80;;;;;;;0.10;75.76;100676.27;4799628;59;1138875;-92
2021/01/11 18:07:49;;;;;;;37.95;17.00;;;;;;;0.10;75.74;100674.52;4854080;58;1138396;-91
2021/01/11 18:12:55;;;;;;;37.00;13.27;;;;;;;0.10;75.45;100658.91;4873533;58;1138460;-92
2021/01/11 18:18:00;;;;;;;33.03;12.63;;;;;;;0.11;75.17;100658.47;4936369;57;1138647;-91
2021/01/11 18:23:06;;;;;;;72.50;25.70;;;;;;;0.11;74.37;100660.63;5000862;57;1138448;-91
2021/01/11 18:28:13;;;;;;;33.50;14.37;;;;;;;0.13;75.29;100660.13;5006602;57;1138568;-92
2021/01/11 18:33:19;;;;;;;42.20;16.37;;;;;;;0.13;74.68;100649.72;5060949;58;1136856;-91
2021/01/11 18:38:25;;;;;;;27.48;10.48;;;;;;;0.15;74.51;100643.17;4996945;57;1138791;-94
2021/01/11 18:43:42;;;;;;;36.07;12.60;;;;;;;0.15;74.08;100645.33;5005490;57;1138344;-91
2021/01/11 18:48:49;;;;;;;58.67;21.70;;;;;;;0.14;73.44;100653.17;5013206;57;1138358;-91
2021/01/11 18:54:04;;;;;;;39.98;16.48;;;;;;;0.11;73.57;100649.37;4994931;57;1138801;-92
2021/01/11 18:59:14;;;;;;;44.67;21.37;;;;;;;0.09;73.09;100630.36;4991228;57;1138321;-92
2021/01/11 19:04:22;;;;;;;32.40;13.53;;;;;;;0.06;72.99;100625.25;5029139;57;1138709;-92
2021/01/11 19:09:29;;;;;;;44.40;17.90;;;;;;;0.05;73.82;100616.60;4983439;57;1138897;-92
2021/01/11 19:14:43;;;;;;;61.47;23.77;;;;;;;0.03;73.45;100622.30;4873879;58;1138720;-92
2021/01/11 19:19:56;;;;;;;44.30;17.10;;;;;;;-0.01;73.64;100623.32;4959038;57;1138470;-91
2021/01/11 19:25:17;;;;;;;28.73;11.97;;;;;;;-0.03;73.21;100610.81;4956326;58;1140834;-94
2021/01/11 19:30:32;;;;;;;34.13;13.67;;;;;;;-0.06;72.97;100605.27;4964215;58;1140675;-91
2021/01/11 19:35:47;;;;;;;23.43;11.50;;;;;;;-0.09;72.52;100608.41;4948086;58;1140518;-93
2021/01/11 19:41:00;;;;;;;39.23;14.63;;;;;;;-0.11;72.93;100607.60;4943856;57;1140570;-92
2021/01/11 19:46:11;;;;;;;35.63;15.15;;;;;;;-0.14;72.66;100598.59;4948975;58;1140896;-93
2021/01/11 19:51:21;;;;;;;30.33;11.80;;;;;;;-0.14;73.14;100579.10;4961715;58;1140514;-91
2021/01/11 19:56:25;;;;;;;34.83;15.13;;;;;;;;;;4989125;58;1140524;-91
2021/01/11 20:01:30;;;;;;;113.67;48.50;;;;;;;-0.10;73.46;100556.02;4913798;58;819562;-92
2021/01/11 20:06:36;;;;;;;76.70;26.40;;;;;;;-0.10;73.41;100552.97;4991840;58;1140364;-91
2021/01/11 20:11:45;;;;;;;48.63;15.43;;;;;;;-0.10;73.16;100536.52;4984341;58;1140759;-92
2021/01/11 20:17:05;;;;;;;178.40;50.00;;;;;;;-0.09;72.42;100531.72;4945750;57;1141329;-90
2021/01/11 20:22:15;;;;;;;161.00;43.73;;;;;;;-0.06;73.56;100531.63;4965284;58;1142663;-92
2021/01/11 20:27:28;;;;;;;139.50;39.03;;;;;;;-0.03;73.07;100534.98;4977621;58;1142546;-91
2021/01/11 20:32:40;;;;;;;240.43;64.23;;;;;;;0.01;73.06;100526.59;4962711;57;1142650;-90
2021/01/11 20:37:49;;;;;;;58.47;21.57;;;;;;;0.00;73.37;100526.23;4971797;58;1140493;-92
2021/01/11 20:43:03;;;;;;;83.37;27.45;;;;;;;0.00;73.35;100502.34;4988480;57;1138611;-92
2021/01/11 20:48:19;;;;;;;42.23;14.98;;;;;;;0.02;72.47;100494.95;4993096;58;1138541;-92
2021/01/11 20:53:29;;;;;;;59.50;21.37;;;;;;;0.00;72.47;100484.63;4978835;57;1138788;-92
2021/01/11 20:58:34;;;;;;;31.73;12.37;;;;;;;0.00;72.32;100476.83;5009897;58;1138371;-91
2021/01/11 21:03:40;;;;;;;58.27;21.70;;;;;;;-0.01;72.98;100483.78;5051710;58;1138432;-92
2021/01/11 21:08:46;;;;;;;54.47;22.23;;;;;;;-0.02;72.78;100482.08;4988206;58;1141204;-91
2021/01/11 21:13:51;;;;;;;43.27;16.03;;;;;;;-0.11;72.58;100451.19;4951806;59;1136327;-93
2021/01/11 21:18:57;;;;;;;42.03;15.23;;;;;;;-0.07;72.74;100441.54;5008420;57;1140687;-91
2021/01/11 21:24:04;;;;;;;26.67;12.77;;;;;;;-0.08;72.90;100438.54;4953026;58;1140687;-91
2021/01/11 21:29:21;;;;;;;26.63;11.63;;;;;;;-0.09;72.67;100440.29;4970421;58;1140618;-91
2021/01/11 21:34:23;;;;;;;36.35;15.28;;;;;;;-0.09;72.57;100418.20;4973406;58;1140370;-92
2021/01/11 21:39:29;;;;;;;23.30;10.83;;;;;;;-0.08;72.78;100417.30;4980524;58;1140668;-92
2021/01/11 21:44:34;;;;;;;35.53;13.10;;;;;;;-0.04;72.51;100408.49;5062677;58;1138397;-92
2021/01/11 21:49:40;;;;;;;70.50;27.90;;;;;;;-0.02;72.58;100395.44;4965613;58;1140463;-92
2021/01/11 21:54:46;;;;;;;36.77;15.23;;;;;;;-0.01;72.36;100378.49;4987703;58;1140423;-92
2021/01/11 21:59:51;;;;;;;22.27;9.63;;;;;;;-0.01;72.55;100368.09;4990274;58;1140594;-92
2021/01/11 22:04:57;;;;;;;21.50;9.13;;;;;;;-0.03;72.01;100373.80;4967906;58;1138415;-94
2021/01/11 22:10:03;;;;;;;26.55;9.20;;;;;;;-0.04;71.39;100366.05;5036463;58;1138423;-93
2021/01/11 22:15:09;;;;;;;35.25;14.38;;;;;;;-0.02;71.55;100353.39;5000998;58;1138654;-92
2021/01/11 22:20:16;;;;;;;35.87;13.43;;;;;;;0.02;71.84;100342.41;5011068;57;1140488;-92
2021/01/11 22:25:21;;;;;;;19.40;8.63;;;;;;;0.06;71.89;100358.30;4972270;57;1138418;-92
2021/01/11 22:30:27;;;;;;;25.40;10.27;;;;;;;0.07;71.41;100360.45;4974567;58;1136256;-92
2021/01/11 22:35:32;;;;;;;26.20;12.03;;;;;;;0.08;71.70;100351.30;4943935;58;1138432;-92
2021/01/11 22:40:38;;;;;;;25.40;10.77;;;;;;;0.10;71.95;100354.69;4944781;58;1138498;-92
2021/01/11 22:45:53;;;;;;;29.23;11.12;;;;;;;0.11;71.86;100344.68;5013917;57;1138409;-92
2021/01/11 22:50:59;;;;;;;19.57;8.80;;;;;;;0.11;71.76;100336.03;4956254;57;1138538;-92
2021/01/11 22:56:12;;;;;;;25.33;10.50;;;;;;;0.12;71.63;100321.67;5043795;57;1134235;-93
2021/01/11 23:01:19;;;;;;;32.42;13.98;;;;;;;0.11;71.48;100312.18;4926561;57;1138687;-92
2021/01/11 23:06:24;;;;;;;21.40;8.90;;;;;;;0.11;71.86;100288.78;4968174;57;1138287;-91
2021/01/11 23:11:30;;;;;;;38.53;15.50;;;;;;;0.12;71.58;100280.53;4918923;58;1136229;-93
2021/01/11 23:16:37;;;;;;;23.93;10.90;;;;;;;0.11;72.28;100275.78;4952704;57;1138339;-92